sensor_id;sensor_type;location;lat;lon;timestamp;temperature;humidity
69418;DHT22;56610;48.872;2.400;2022-10-31T00:01:12;19.80;99.90
69418;DHT22;56610;48.872;2.400;2022-10-31T00:03:37;19.80;99.90
69418;DHT22;56610;48.872;2.400;2022-10-31T00:06:03;19.70;99.90
69418;DHT22;56610;48.872;2.400;2022-10-31T00:08:29;19.60;99.90
69418;DHT22;56610;48.872;2.400;2022-10-31T00:10:54;19.60;99.90
69418;DHT22;56610;48.872;2.400;2022-10-31T00:13:20;19.60;99.90
69418;DHT22;56610;48.872;2.400;2022-10-31T00:15:45;19.60;99.90
69418;DHT22;56610;48.872;2.400;2022-10-31T00:18:11;19.60;99.90
69418;DHT22;56610;48.872;2.400;2022-10-31T00:20:38;19.50;99.90
69418;DHT22;56610;48.872;2.400;2022-10-31T00:23:05;19.40;99.90
69418;DHT22;56610;48.872;2.400;2022-10-31T00:25:34;19.40;99.90
69418;DHT22;56610;48.872;2.400;2022-10-31T00:28:01;19.40;99.90
69418;DHT22;56610;48.872;2.400;2022-10-31T00:30:27;19.40;99.90
69418;DHT22;56610;48.872;2.400;2022-10-31T00:32:52;19.40;99.90
69418;DHT22;56610;48.872;2.400;2022-10-31T00:35:18;19.40;99.90
69418;DHT22;56610;48.872;2.400;2022-10-31T00:37:43;19.30;99.90
69418;DHT22;56610;48.872;2.400;2022-10-31T00:40:10;19.40;99.90
69418;DHT22;56610;48.872;2.400;2022-10-31T00:42:35;19.50;99.90
69418;DHT22;56610;48.872;2.400;2022-10-31T00:45:01;19.50;99.90
69418;DHT22;56610;48.872;2.400;2022-10-31T00:47:27;19.50;99.90
69418;DHT22;56610;48.872;2.400;2022-10-31T00:49:52;19.60;99.90
69418;DHT22;56610;48.872;2.400;2022-10-31T00:52:18;19.70;99.90
69418;DHT22;56610;48.872;2.400;2022-10-31T00:54:43;19.70;99.90
69418;DHT22;56610;48.872;2.400;2022-10-31T00:57:09;19.70;99.90
69418;DHT22;56610;48.872;2.400;2022-10-31T00:59:34;19.60;99.90
69418;DHT22;56610;48.872;2.400;2022-10-31T01:02:00;19.40;99.90
69418;DHT22;56610;48.872;2.400;2022-10-31T01:04:25;19.20;99.90
69418;DHT22;56610;48.872;2.400;2022-10-31T01:06:51;19.00;99.90
69418;DHT22;56610;48.872;2.400;2022-10-31T01:09:16;18.90;99.90
69418;DHT22;56610;48.872;2.400;2022-10-31T01:11:42;18.90;99.90
69418;DHT22;56610;48.872;2.400;2022-10-31T01:14:08;18.90;99.90
69418;DHT22;56610;48.872;2.400;2022-10-31T01:16:34;19.00;99.90
69418;DHT22;56610;48.872;2.400;2022-10-31T01:19:00;19.00;99.90
69418;DHT22;56610;48.872;2.400;2022-10-31T01:21:28;19.10;99.90
69418;DHT22;56610;48.872;2.400;2022-10-31T01:23:55;19.10;99.90
69418;DHT22;56610;48.872;2.400;2022-10-31T01:26:23;19.20;99.90
69418;DHT22;56610;48.872;2.400;2022-10-31T01:28:55;19.20;99.90
69418;DHT22;56610;48.872;2.400;2022-10-31T01:31:23;19.10;99.90
69418;DHT22;56610;48.872;2.400;2022-10-31T01:33:48;19.10;99.90
69418;DHT22;56610;48.872;2.400;2022-10-31T01:36:29;19.00;99.90
69418;DHT22;56610;48.872;2.400;2022-10-31T01:38:57;19.00;99.90
69418;DHT22;56610;48.872;2.400;2022-10-31T01:41:26;19.10;99.90
69418;DHT22;56610;48.872;2.400;2022-10-31T01:43:56;19.10;99.90
69418;DHT22;56610;48.872;2.400;2022-10-31T01:46:32;19.20;99.90
69418;DHT22;56610;48.872;2.400;2022-10-31T01:49:00;19.20;99.90
69418;DHT22;56610;48.872;2.400;2022-10-31T01:51:31;19.20;99.90
69418;DHT22;56610;48.872;2.400;2022-10-31T01:54:01;19.30;99.90
69418;DHT22;56610;48.872;2.400;2022-10-31T01:56:27;19.30;99.90
69418;DHT22;56610;48.872;2.400;2022-10-31T01:58:54;19.30;99.90
69418;DHT22;56610;48.872;2.400;2022-10-31T02:01:20;19.30;99.90
69418;DHT22;56610;48.872;2.400;2022-10-31T02:03:46;19.30;99.90
69418;DHT22;56610;48.872;2.400;2022-10-31T02:06:37;19.20;99.90
69418;DHT22;56610;48.872;2.400;2022-10-31T02:09:05;19.20;99.90
69418;DHT22;56610;48.872;2.400;2022-10-31T02:11:32;19.20;99.90
69418;DHT22;56610;48.872;2.400;2022-10-31T02:14:01;19.20;99.90
69418;DHT22;56610;48.872;2.400;2022-10-31T02:16:28;19.30;99.90
69418;DHT22;56610;48.872;2.400;2022-10-31T02:18:54;19.30;99.90
69418;DHT22;56610;48.872;2.400;2022-10-31T02:21:24;19.30;99.90
69418;DHT22;56610;48.872;2.400;2022-10-31T02:37:33;19.20;99.90
69418;DHT22;56610;48.872;2.400;2022-10-31T02:40:10;19.20;99.90
69418;DHT22;56610;48.872;2.400;2022-10-31T02:43:00;19.20;99.90
69418;DHT22;56610;48.872;2.400;2022-10-31T02:45:47;19.30;99.90
69418;DHT22;56610;48.872;2.400;2022-10-31T02:48:20;19.20;99.90
69418;DHT22;56610;48.872;2.400;2022-10-31T02:50:55;19.20;99.90
69418;DHT22;56610;48.872;2.400;2022-10-31T02:53:21;19.30;99.90
69418;DHT22;56610;48.872;2.400;2022-10-31T02:55:59;19.30;99.90
69418;DHT22;56610;48.872;2.400;2022-10-31T02:58:28;19.30;99.90
69418;DHT22;56610;48.872;2.400;2022-10-31T03:03:42;19.30;99.90
69418;DHT22;56610;48.872;2.400;2022-10-31T03:06:29;19.30;99.90
69418;DHT22;56610;48.872;2.400;2022-10-31T03:11:32;19.40;99.90
69418;DHT22;56610;48.872;2.400;2022-10-31T03:14:22;19.40;99.90
69418;DHT22;56610;48.872;2.400;2022-10-31T03:16:51;19.40;99.90
69418;DHT22;56610;48.872;2.400;2022-10-31T03:19:23;19.40;99.90
69418;DHT22;56610;48.872;2.400;2022-10-31T03:24:26;19.40;99.90
69418;DHT22;56610;48.872;2.400;2022-10-31T03:26:55;19.50;99.90
69418;DHT22;56610;48.872;2.400;2022-10-31T03:29:22;19.60;99.90
69418;DHT22;56610;48.872;2.400;2022-10-31T03:32:03;19.50;99.90
69418;DHT22;56610;48.872;2.400;2022-10-31T03:34:30;19.50;99.90
69418;DHT22;56610;48.872;2.400;2022-10-31T03:36:59;19.50;99.90
69418;DHT22;56610;48.872;2.400;2022-10-31T03:39:27;19.50;99.90
69418;DHT22;56610;48.872;2.400;2022-10-31T03:42:05;19.30;99.90
69418;DHT22;56610;48.872;2.400;2022-10-31T03:44:32;19.30;99.90
69418;DHT22;56610;48.872;2.400;2022-10-31T03:47:00;19.30;99.90
69418;DHT22;56610;48.872;2.400;2022-10-31T03:49:26;19.30;99.90
69418;DHT22;56610;48.872;2.400;2022-10-31T03:52:00;19.10;99.90
69418;DHT22;56610;48.872;2.400;2022-10-31T03:54:34;19.10;99.90
69418;DHT22;56610;48.872;2.400;2022-10-31T03:57:33;19.00;99.90
69418;DHT22;56610;48.872;2.400;2022-10-31T04:00:16;19.00;99.90
69418;DHT22;56610;48.872;2.400;2022-10-31T04:02:48;19.00;99.90
69418;DHT22;56610;48.872;2.400;2022-10-31T04:05:15;18.80;99.90
69418;DHT22;56610;48.872;2.400;2022-10-31T04:07:45;18.80;99.90
69418;DHT22;56610;48.872;2.400;2022-10-31T04:10:14;18.80;99.90
69418;DHT22;56610;48.872;2.400;2022-10-31T04:12:43;18.80;99.90
69418;DHT22;56610;48.872;2.400;2022-10-31T04:15:10;18.70;99.90
69418;DHT22;56610;48.872;2.400;2022-10-31T04:17:39;18.70;99.90
69418;DHT22;56610;48.872;2.400;2022-10-31T04:20:06;18.60;99.90
69418;DHT22;56610;48.872;2.400;2022-10-31T04:22:31;18.50;99.90
69418;DHT22;56610;48.872;2.400;2022-10-31T04:24:57;18.50;99.90
69418;DHT22;56610;48.872;2.400;2022-10-31T04:27:22;18.40;99.90
69418;DHT22;56610;48.872;2.400;2022-10-31T04:29:48;18.40;99.90
69418;DHT22;56610;48.872;2.400;2022-10-31T04:32:14;18.40;99.90
69418;DHT22;56610;48.872;2.400;2022-10-31T04:34:39;18.30;99.90
69418;DHT22;56610;48.872;2.400;2022-10-31T04:37:05;18.40;99.90
69418;DHT22;56610;48.872;2.400;2022-10-31T04:39:30;18.40;99.90
69418;DHT22;56610;48.872;2.400;2022-10-31T04:41:56;18.50;99.90
69418;DHT22;56610;48.872;2.400;2022-10-31T04:44:21;18.50;99.90
69418;DHT22;56610;48.872;2.400;2022-10-31T04:46:47;18.50;99.90
69418;DHT22;56610;48.872;2.400;2022-10-31T04:49:13;18.50;99.90
69418;DHT22;56610;48.872;2.400;2022-10-31T04:51:38;18.50;99.90
69418;DHT22;56610;48.872;2.400;2022-10-31T04:54:04;18.50;99.90
69418;DHT22;56610;48.872;2.400;2022-10-31T04:56:30;18.50;99.90
69418;DHT22;56610;48.872;2.400;2022-10-31T04:58:55;18.50;99.90
69418;DHT22;56610;48.872;2.400;2022-10-31T05:01:21;18.50;99.90
69418;DHT22;56610;48.872;2.400;2022-10-31T05:03:47;18.50;99.90
69418;DHT22;56610;48.872;2.400;2022-10-31T05:06:13;18.50;99.90
69418;DHT22;56610;48.872;2.400;2022-10-31T05:08:39;18.60;99.90
69418;DHT22;56610;48.872;2.400;2022-10-31T05:11:04;18.50;99.90
69418;DHT22;56610;48.872;2.400;2022-10-31T05:13:30;18.50;99.90
69418;DHT22;56610;48.872;2.400;2022-10-31T05:15:56;18.50;99.90
69418;DHT22;56610;48.872;2.400;2022-10-31T05:18:22;18.50;99.90
69418;DHT22;56610;48.872;2.400;2022-10-31T05:20:48;18.50;99.90
69418;DHT22;56610;48.872;2.400;2022-10-31T05:23:13;18.50;99.90
69418;DHT22;56610;48.872;2.400;2022-10-31T05:25:40;18.60;99.90
69418;DHT22;56610;48.872;2.400;2022-10-31T05:28:05;18.60;99.90
69418;DHT22;56610;48.872;2.400;2022-10-31T05:30:32;18.50;99.90
69418;DHT22;56610;48.872;2.400;2022-10-31T05:32:58;18.50;99.90
69418;DHT22;56610;48.872;2.400;2022-10-31T05:35:32;18.50;99.90
69418;DHT22;56610;48.872;2.400;2022-10-31T05:37:58;18.60;99.90
69418;DHT22;56610;48.872;2.400;2022-10-31T05:40:25;18.60;99.90
69418;DHT22;56610;48.872;2.400;2022-10-31T05:42:52;18.60;99.90
69418;DHT22;56610;48.872;2.400;2022-10-31T05:45:19;18.70;99.90
69418;DHT22;56610;48.872;2.400;2022-10-31T05:47:55;18.70;99.90
69418;DHT22;56610;48.872;2.400;2022-10-31T05:50:21;18.70;99.90
69418;DHT22;56610;48.872;2.400;2022-10-31T05:52:53;18.70;99.90
69418;DHT22;56610;48.872;2.400;2022-10-31T05:55:19;18.60;99.90
69418;DHT22;56610;48.872;2.400;2022-10-31T05:57:44;18.60;99.90
69418;DHT22;56610;48.872;2.400;2022-10-31T06:00:10;18.50;99.90
69418;DHT22;56610;48.872;2.400;2022-10-31T06:02:38;18.60;99.90
69418;DHT22;56610;48.872;2.400;2022-10-31T06:05:04;18.60;99.90
69418;DHT22;56610;48.872;2.400;2022-10-31T06:07:33;18.50;99.90
69418;DHT22;56610;48.872;2.400;2022-10-31T06:10:00;18.40;99.90
69418;DHT22;56610;48.872;2.400;2022-10-31T06:12:26;18.50;99.90
69418;DHT22;56610;48.872;2.400;2022-10-31T06:14:51;18.50;99.90
69418;DHT22;56610;48.872;2.400;2022-10-31T06:17:17;18.40;99.90
69418;DHT22;56610;48.872;2.400;2022-10-31T06:19:43;18.40;99.90
69418;DHT22;56610;48.872;2.400;2022-10-31T06:22:08;18.30;99.90
69418;DHT22;56610;48.872;2.400;2022-10-31T06:24:36;18.40;99.90
69418;DHT22;56610;48.872;2.400;2022-10-31T06:27:02;18.40;99.90
69418;DHT22;56610;48.872;2.400;2022-10-31T06:29:27;18.40;99.90
69418;DHT22;56610;48.872;2.400;2022-10-31T06:31:53;18.50;99.90
69418;DHT22;56610;48.872;2.400;2022-10-31T06:34:19;18.40;99.90
69418;DHT22;56610;48.872;2.400;2022-10-31T06:36:46;18.50;99.90
69418;DHT22;56610;48.872;2.400;2022-10-31T06:39:13;18.50;99.90
69418;DHT22;56610;48.872;2.400;2022-10-31T06:41:39;18.40;99.90
69418;DHT22;56610;48.872;2.400;2022-10-31T06:44:06;18.40;99.90
69418;DHT22;56610;48.872;2.400;2022-10-31T06:46:32;18.30;99.90
69418;DHT22;56610;48.872;2.400;2022-10-31T06:48:57;18.30;99.90
69418;DHT22;56610;48.872;2.400;2022-10-31T06:51:23;18.20;99.90
69418;DHT22;56610;48.872;2.400;2022-10-31T06:53:48;18.20;99.90
69418;DHT22;56610;48.872;2.400;2022-10-31T06:56:14;18.20;99.90
69418;DHT22;56610;48.872;2.400;2022-10-31T06:58:40;18.20;99.90
69418;DHT22;56610;48.872;2.400;2022-10-31T07:01:05;18.20;99.90
69418;DHT22;56610;48.872;2.400;2022-10-31T07:03:31;18.20;99.90
69418;DHT22;56610;48.872;2.400;2022-10-31T07:05:56;18.20;99.90
69418;DHT22;56610;48.872;2.400;2022-10-31T07:08:23;18.30;99.90
69418;DHT22;56610;48.872;2.400;2022-10-31T07:10:53;18.40;99.90
69418;DHT22;56610;48.872;2.400;2022-10-31T07:13:20;18.30;99.90
69418;DHT22;56610;48.872;2.400;2022-10-31T07:15:52;18.30;99.90
69418;DHT22;56610;48.872;2.400;2022-10-31T07:18:19;18.30;99.90
69418;DHT22;56610;48.872;2.400;2022-10-31T07:20:45;18.30;99.90
69418;DHT22;56610;48.872;2.400;2022-10-31T07:23:12;18.20;99.90
69418;DHT22;56610;48.872;2.400;2022-10-31T07:25:38;18.30;99.90
69418;DHT22;56610;48.872;2.400;2022-10-31T07:28:05;18.30;99.90
69418;DHT22;56610;48.872;2.400;2022-10-31T07:30:31;18.40;99.90
69418;DHT22;56610;48.872;2.400;2022-10-31T07:32:56;18.40;99.90
69418;DHT22;56610;48.872;2.400;2022-10-31T07:35:24;18.40;99.90
69418;DHT22;56610;48.872;2.400;2022-10-31T07:37:50;18.40;99.90
69418;DHT22;56610;48.872;2.400;2022-10-31T07:40:17;18.40;99.90
69418;DHT22;56610;48.872;2.400;2022-10-31T07:42:45;18.30;99.90
69418;DHT22;56610;48.872;2.400;2022-10-31T07:45:13;18.40;99.90
69418;DHT22;56610;48.872;2.400;2022-10-31T07:50:05;18.40;99.90
69418;DHT22;56610;48.872;2.400;2022-10-31T07:52:31;18.40;99.90
69418;DHT22;56610;48.872;2.400;2022-10-31T07:54:56;18.40;99.90
69418;DHT22;56610;48.872;2.400;2022-10-31T07:57:22;18.40;99.90
69418;DHT22;56610;48.872;2.400;2022-10-31T07:59:48;18.30;99.90
69418;DHT22;56610;48.872;2.400;2022-10-31T08:02:13;18.40;99.90
69418;DHT22;56610;48.872;2.400;2022-10-31T08:04:39;18.50;99.90
69418;DHT22;56610;48.872;2.400;2022-10-31T08:07:04;18.50;99.90
69418;DHT22;56610;48.872;2.400;2022-10-31T08:09:30;18.50;99.90
69418;DHT22;56610;48.872;2.400;2022-10-31T08:11:55;18.40;99.90
69418;DHT22;56610;48.872;2.400;2022-10-31T08:14:21;18.50;99.90
69418;DHT22;56610;48.872;2.400;2022-10-31T08:16:47;18.50;99.90
69418;DHT22;56610;48.872;2.400;2022-10-31T08:19:13;18.60;99.90
69418;DHT22;56610;48.872;2.400;2022-10-31T08:21:39;18.60;99.90
69418;DHT22;56610;48.872;2.400;2022-10-31T08:24:05;18.60;99.90
69418;DHT22;56610;48.872;2.400;2022-10-31T08:26:31;18.60;99.90
69418;DHT22;56610;48.872;2.400;2022-10-31T08:28:56;18.60;99.90
69418;DHT22;56610;48.872;2.400;2022-10-31T08:31:22;18.50;99.90
69418;DHT22;56610;48.872;2.400;2022-10-31T08:33:48;18.50;99.90
69418;DHT22;56610;48.872;2.400;2022-10-31T08:36:14;18.40;99.90
69418;DHT22;56610;48.872;2.400;2022-10-31T08:38:39;18.40;99.90
69418;DHT22;56610;48.872;2.400;2022-10-31T08:41:05;18.40;99.90
69418;DHT22;56610;48.872;2.400;2022-10-31T08:43:30;18.50;99.90
69418;DHT22;56610;48.872;2.400;2022-10-31T08:45:56;18.50;99.90
69418;DHT22;56610;48.872;2.400;2022-10-31T08:48:21;18.50;99.90
69418;DHT22;56610;48.872;2.400;2022-10-31T08:50:47;18.50;99.90
69418;DHT22;56610;48.872;2.400;2022-10-31T08:53:15;18.50;99.90
69418;DHT22;56610;48.872;2.400;2022-10-31T08:55:42;18.50;99.90
69418;DHT22;56610;48.872;2.400;2022-10-31T08:58:14;18.60;99.90
69418;DHT22;56610;48.872;2.400;2022-10-31T09:00:41;18.70;99.90
69418;DHT22;56610;48.872;2.400;2022-10-31T09:03:14;18.80;99.90
69418;DHT22;56610;48.872;2.400;2022-10-31T09:05:40;18.90;99.90
69418;DHT22;56610;48.872;2.400;2022-10-31T09:08:06;19.00;99.90
69418;DHT22;56610;48.872;2.400;2022-10-31T09:10:34;19.00;99.90
69418;DHT22;56610;48.872;2.400;2022-10-31T09:13:02;19.00;99.90
69418;DHT22;56610;48.872;2.400;2022-10-31T09:15:35;19.10;99.90
69418;DHT22;56610;48.872;2.400;2022-10-31T09:18:00;19.10;99.90
69418;DHT22;56610;48.872;2.400;2022-10-31T09:20:27;19.30;99.90
69418;DHT22;56610;48.872;2.400;2022-10-31T09:23:02;19.30;99.90
69418;DHT22;56610;48.872;2.400;2022-10-31T09:25:28;19.30;99.90
69418;DHT22;56610;48.872;2.400;2022-10-31T09:27:58;19.40;99.90
69418;DHT22;56610;48.872;2.400;2022-10-31T09:30:28;19.30;99.90
69418;DHT22;56610;48.872;2.400;2022-10-31T09:32:59;19.40;99.90
69418;DHT22;56610;48.872;2.400;2022-10-31T09:35:26;19.40;99.90
69418;DHT22;56610;48.872;2.400;2022-10-31T09:38:03;19.50;99.90
69418;DHT22;56610;48.872;2.400;2022-10-31T09:49:02;19.70;99.90
69418;DHT22;56610;48.872;2.400;2022-10-31T09:51:40;19.80;99.90
69418;DHT22;56610;48.872;2.400;2022-10-31T09:54:21;19.90;99.90
69418;DHT22;56610;48.872;2.400;2022-10-31T09:56:51;20.20;99.90
69418;DHT22;56610;48.872;2.400;2022-10-31T09:59:34;20.40;99.90
69418;DHT22;56610;48.872;2.400;2022-10-31T10:05:01;20.60;99.90
69418;DHT22;56610;48.872;2.400;2022-10-31T10:10:02;21.00;99.90
69418;DHT22;56610;48.872;2.400;2022-10-31T10:12:44;21.10;99.90
69418;DHT22;56610;48.872;2.400;2022-10-31T10:15:36;21.00;99.90
69418;DHT22;56610;48.872;2.400;2022-10-31T10:20:48;21.10;99.90
69418;DHT22;56610;48.872;2.400;2022-10-31T10:26:13;21.00;99.90
69418;DHT22;56610;48.872;2.400;2022-10-31T10:28:44;21.20;99.90
69418;DHT22;56610;48.872;2.400;2022-10-31T10:31:20;21.20;99.90
69418;DHT22;56610;48.872;2.400;2022-10-31T10:36:51;21.10;99.90
69418;DHT22;56610;48.872;2.400;2022-10-31T10:39:18;21.10;99.90
69418;DHT22;56610;48.872;2.400;2022-10-31T10:41:49;21.00;99.90
69418;DHT22;56610;48.872;2.400;2022-10-31T10:44:34;21.10;99.90
69418;DHT22;56610;48.872;2.400;2022-10-31T10:47:20;21.30;99.90
69418;DHT22;56610;48.872;2.400;2022-10-31T10:50:19;21.50;99.90
69418;DHT22;56610;48.872;2.400;2022-10-31T10:55:41;21.70;99.90
69418;DHT22;56610;48.872;2.400;2022-10-31T10:58:09;22.00;99.90
69418;DHT22;56610;48.872;2.400;2022-10-31T11:00:41;22.40;99.90
69418;DHT22;56610;48.872;2.400;2022-10-31T11:03:07;22.60;99.90
69418;DHT22;56610;48.872;2.400;2022-10-31T11:05:43;22.90;99.90
69418;DHT22;56610;48.872;2.400;2022-10-31T11:08:10;23.20;99.90
69418;DHT22;56610;48.872;2.400;2022-10-31T11:10:36;23.60;99.90
69418;DHT22;56610;48.872;2.400;2022-10-31T11:15:35;24.20;99.90
69418;DHT22;56610;48.872;2.400;2022-10-31T11:18:02;24.70;99.90
69418;DHT22;56610;48.872;2.400;2022-10-31T11:20:35;24.90;99.90
69418;DHT22;56610;48.872;2.400;2022-10-31T11:23:05;25.30;99.90
69418;DHT22;56610;48.872;2.400;2022-10-31T11:25:48;25.70;99.90
69418;DHT22;56610;48.872;2.400;2022-10-31T11:28:15;26.30;99.90
69418;DHT22;56610;48.872;2.400;2022-10-31T11:30:51;26.70;99.90
69418;DHT22;56610;48.872;2.400;2022-10-31T11:33:24;26.90;99.90
69418;DHT22;56610;48.872;2.400;2022-10-31T11:35:52;27.10;99.90
69418;DHT22;56610;48.872;2.400;2022-10-31T11:38:20;27.20;99.90
69418;DHT22;56610;48.872;2.400;2022-10-31T11:41:07;27.30;99.90
69418;DHT22;56610;48.872;2.400;2022-10-31T11:43:34;27.40;99.90
69418;DHT22;56610;48.872;2.400;2022-10-31T11:45:59;27.40;99.90
69418;DHT22;56610;48.872;2.400;2022-10-31T11:48:33;27.40;99.90
69418;DHT22;56610;48.872;2.400;2022-10-31T11:50:58;27.50;99.90
69418;DHT22;56610;48.872;2.400;2022-10-31T11:53:30;27.50;99.80
69418;DHT22;56610;48.872;2.400;2022-10-31T11:58:31;27.70;99.90
69418;DHT22;56610;48.872;2.400;2022-10-31T12:00:57;27.60;99.90
69418;DHT22;56610;48.872;2.400;2022-10-31T12:03:48;27.60;99.80
69418;DHT22;56610;48.872;2.400;2022-10-31T12:06:30;27.60;99.70
69418;DHT22;56610;48.872;2.400;2022-10-31T12:08:57;27.50;99.90
69418;DHT22;56610;48.872;2.400;2022-10-31T12:11:36;27.50;99.90
69418;DHT22;56610;48.872;2.400;2022-10-31T12:17:26;27.10;99.90
69418;DHT22;56610;48.872;2.400;2022-10-31T12:28:07;27.40;99.90
69418;DHT22;56610;48.872;2.400;2022-10-31T12:33:45;27.20;99.90
69418;DHT22;56610;48.872;2.400;2022-10-31T12:36:32;27.00;99.80
69418;DHT22;56610;48.872;2.400;2022-10-31T12:44:35;26.50;99.90
69418;DHT22;56610;48.872;2.400;2022-10-31T12:47:39;26.50;99.90
69418;DHT22;56610;48.872;2.400;2022-10-31T12:50:33;26.40;99.90
69418;DHT22;56610;48.872;2.400;2022-10-31T12:58:26;25.90;99.90
69418;DHT22;56610;48.872;2.400;2022-10-31T13:03:35;25.40;99.90
69418;DHT22;56610;48.872;2.400;2022-10-31T13:06:12;25.10;99.90
69418;DHT22;56610;48.872;2.400;2022-10-31T13:08:40;25.10;99.90
69418;DHT22;56610;48.872;2.400;2022-10-31T13:13:49;25.00;99.90
69418;DHT22;56610;48.872;2.400;2022-10-31T13:16:18;25.00;99.90
69418;DHT22;56610;48.872;2.400;2022-10-31T13:21:42;25.10;99.90
69418;DHT22;56610;48.872;2.400;2022-10-31T13:24:16;25.20;99.90
69418;DHT22;56610;48.872;2.400;2022-10-31T13:26:50;25.10;99.90
69418;DHT22;56610;48.872;2.400;2022-10-31T13:31:56;25.50;99.90
69418;DHT22;56610;48.872;2.400;2022-10-31T13:34:40;25.50;99.90
69418;DHT22;56610;48.872;2.400;2022-10-31T13:40:22;25.60;99.90
69418;DHT22;56610;48.872;2.400;2022-10-31T13:43:07;25.50;99.90
69418;DHT22;56610;48.872;2.400;2022-10-31T13:45:46;25.50;99.90
69418;DHT22;56610;48.872;2.400;2022-10-31T13:50:43;25.30;99.90
69418;DHT22;56610;48.872;2.400;2022-10-31T13:55:46;24.80;99.90
69418;DHT22;56610;48.872;2.400;2022-10-31T13:58:24;24.80;99.90
69418;DHT22;56610;48.872;2.400;2022-10-31T14:03:43;24.70;99.90
69418;DHT22;56610;48.872;2.400;2022-10-31T14:06:11;24.50;99.90
69418;DHT22;56610;48.872;2.400;2022-10-31T14:08:40;24.50;99.90
69418;DHT22;56610;48.872;2.400;2022-10-31T14:11:09;24.60;99.90
69418;DHT22;56610;48.872;2.400;2022-10-31T14:13:44;24.60;99.90
69418;DHT22;56610;48.872;2.400;2022-10-31T14:16:26;24.60;99.90
69418;DHT22;56610;48.872;2.400;2022-10-31T14:21:36;24.70;99.90
69418;DHT22;56610;48.872;2.400;2022-10-31T14:24:14;24.90;99.90
69418;DHT22;56610;48.872;2.400;2022-10-31T14:26:56;25.00;99.90
69418;DHT22;56610;48.872;2.400;2022-10-31T14:29:27;25.10;99.90
69418;DHT22;56610;48.872;2.400;2022-10-31T14:31:59;25.40;99.90
69418;DHT22;56610;48.872;2.400;2022-10-31T14:34:42;25.60;99.90
69418;DHT22;56610;48.872;2.400;2022-10-31T14:43:23;25.50;99.90
69418;DHT22;56610;48.872;2.400;2022-10-31T14:51:21;25.30;99.90
69418;DHT22;56610;48.872;2.400;2022-10-31T14:53:53;25.20;99.90
69418;DHT22;56610;48.872;2.400;2022-10-31T14:56:24;25.10;99.90
69418;DHT22;56610;48.872;2.400;2022-10-31T14:58:53;25.10;99.90
69418;DHT22;56610;48.872;2.400;2022-10-31T15:01:25;25.20;99.90
69418;DHT22;56610;48.872;2.400;2022-10-31T15:04:03;25.20;99.90
69418;DHT22;56610;48.872;2.400;2022-10-31T15:06:36;25.30;99.90
69418;DHT22;56610;48.872;2.400;2022-10-31T15:09:04;25.30;99.90
69418;DHT22;56610;48.872;2.400;2022-10-31T15:11:37;25.20;99.90
69418;DHT22;56610;48.872;2.400;2022-10-31T15:14:30;25.10;99.90
69418;DHT22;56610;48.872;2.400;2022-10-31T15:17:02;25.00;99.90
69418;DHT22;56610;48.872;2.400;2022-10-31T15:19:30;24.90;99.90
69418;DHT22;56610;48.872;2.400;2022-10-31T15:21:58;24.90;99.90
69418;DHT22;56610;48.872;2.400;2022-10-31T15:24:42;24.80;99.90
69418;DHT22;56610;48.872;2.400;2022-10-31T15:27:17;24.90;99.90
69418;DHT22;56610;48.872;2.400;2022-10-31T15:29:51;25.00;99.90
69418;DHT22;56610;48.872;2.400;2022-10-31T15:32:20;25.10;99.90
69418;DHT22;56610;48.872;2.400;2022-10-31T15:34:46;25.10;99.90
69418;DHT22;56610;48.872;2.400;2022-10-31T15:37:17;25.00;99.90
69418;DHT22;56610;48.872;2.400;2022-10-31T15:39:44;25.00;99.90
69418;DHT22;56610;48.872;2.400;2022-10-31T15:42:26;24.90;99.90
69418;DHT22;56610;48.872;2.400;2022-10-31T15:47:29;24.90;99.90
69418;DHT22;56610;48.872;2.400;2022-10-31T15:49:57;24.80;99.90
69418;DHT22;56610;48.872;2.400;2022-10-31T15:57:29;24.60;99.90
69418;DHT22;56610;48.872;2.400;2022-10-31T15:59:55;24.70;99.90
69418;DHT22;56610;48.872;2.400;2022-10-31T16:02:24;24.70;99.90
69418;DHT22;56610;48.872;2.400;2022-10-31T16:07:20;24.90;99.90
69418;DHT22;56610;48.872;2.400;2022-10-31T16:09:57;24.80;99.90
69418;DHT22;56610;48.872;2.400;2022-10-31T16:12:24;24.90;99.90
69418;DHT22;56610;48.872;2.400;2022-10-31T16:14:52;24.80;99.90
69418;DHT22;56610;48.872;2.400;2022-10-31T16:17:20;24.70;99.90
69418;DHT22;56610;48.872;2.400;2022-10-31T16:19:51;24.70;99.90
69418;DHT22;56610;48.872;2.400;2022-10-31T16:22:27;24.60;99.90
69418;DHT22;56610;48.872;2.400;2022-10-31T16:25:15;24.60;99.90
69418;DHT22;56610;48.872;2.400;2022-10-31T16:27:47;24.50;99.90
69418;DHT22;56610;48.872;2.400;2022-10-31T16:30:42;24.40;99.90
69418;DHT22;56610;48.872;2.400;2022-10-31T16:35:52;24.30;99.90
69418;DHT22;56610;48.872;2.400;2022-10-31T16:38:18;24.30;99.90
69418;DHT22;56610;48.872;2.400;2022-10-31T16:40:44;24.30;99.90
69418;DHT22;56610;48.872;2.400;2022-10-31T16:43:14;24.30;99.90
69418;DHT22;56610;48.872;2.400;2022-10-31T16:45:44;24.30;99.90
69418;DHT22;56610;48.872;2.400;2022-10-31T16:48:12;24.20;99.90
69418;DHT22;56610;48.872;2.400;2022-10-31T16:50:41;24.20;99.90
69418;DHT22;56610;48.872;2.400;2022-10-31T16:53:07;24.20;99.90
69418;DHT22;56610;48.872;2.400;2022-10-31T16:55:33;24.10;99.90
69418;DHT22;56610;48.872;2.400;2022-10-31T16:58:01;24.10;99.90
69418;DHT22;56610;48.872;2.400;2022-10-31T17:00:27;24.10;99.90
69418;DHT22;56610;48.872;2.400;2022-10-31T17:02:55;24.00;99.90
69418;DHT22;56610;48.872;2.400;2022-10-31T17:05:24;24.00;99.90
69418;DHT22;56610;48.872;2.400;2022-10-31T17:07:55;24.00;99.90
69418;DHT22;56610;48.872;2.400;2022-10-31T17:10:21;24.00;99.90
69418;DHT22;56610;48.872;2.400;2022-10-31T17:12:47;23.90;99.90
69418;DHT22;56610;48.872;2.400;2022-10-31T17:15:22;23.70;99.90
69418;DHT22;56610;48.872;2.400;2022-10-31T17:17:48;23.60;99.90
69418;DHT22;56610;48.872;2.400;2022-10-31T17:20:26;23.50;99.90
69418;DHT22;56610;48.872;2.400;2022-10-31T17:22:52;23.40;99.90
69418;DHT22;56610;48.872;2.400;2022-10-31T17:25:22;23.30;99.90
69418;DHT22;56610;48.872;2.400;2022-10-31T17:27:49;23.30;99.90
69418;DHT22;56610;48.872;2.400;2022-10-31T17:30:15;23.10;99.90
69418;DHT22;56610;48.872;2.400;2022-10-31T17:32:43;22.90;99.90
69418;DHT22;56610;48.872;2.400;2022-10-31T17:35:10;22.70;99.90
69418;DHT22;56610;48.872;2.400;2022-10-31T17:37:37;22.10;99.90
69418;DHT22;56610;48.872;2.400;2022-10-31T17:40:04;21.60;99.90
69418;DHT22;56610;48.872;2.400;2022-10-31T17:42:30;21.30;99.90
69418;DHT22;56610;48.872;2.400;2022-10-31T17:44:55;21.00;99.90
69418;DHT22;56610;48.872;2.400;2022-10-31T17:47:21;21.00;99.90
69418;DHT22;56610;48.872;2.400;2022-10-31T17:49:50;20.90;99.90
69418;DHT22;56610;48.872;2.400;2022-10-31T17:52:18;20.80;99.90
69418;DHT22;56610;48.872;2.400;2022-10-31T17:54:43;20.60;99.90